createdAt,value
2018-12-22T00:00:20.839Z,11.80
2018-12-22T00:01:20.993Z,11.82
2018-12-22T00:02:21.137Z,11.83
2018-12-22T00:03:21.288Z,11.86
2018-12-22T00:04:21.438Z,11.86
2018-12-22T00:05:21.592Z,11.87
2018-12-22T00:06:21.739Z,11.78
2018-12-22T00:07:21.886Z,11.86
2018-12-22T00:08:22.035Z,11.80
2018-12-22T00:09:22.187Z,11.82
2018-12-22T00:10:22.337Z,11.78
2018-12-22T00:11:22.492Z,11.85
2018-12-22T00:12:22.641Z,11.77
2018-12-22T00:13:22.794Z,11.85
2018-12-22T00:14:22.946Z,11.89
2018-12-22T00:15:23.093Z,11.82
2018-12-22T00:16:23.243Z,11.71
2018-12-22T00:17:23.394Z,11.68
2018-12-22T00:18:23.542Z,11.78
2018-12-22T00:19:23.696Z,11.82
2018-12-22T00:20:23.844Z,11.78
2018-12-22T00:21:23.991Z,11.75
2018-12-22T00:22:24.142Z,11.72
2018-12-22T00:23:24.295Z,11.75
2018-12-22T00:24:24.442Z,11.74
2018-12-22T00:25:24.590Z,11.78
2018-12-22T00:26:24.739Z,11.70
2018-12-22T00:27:24.890Z,11.64
2018-12-22T00:28:25.044Z,11.68
2018-12-22T00:29:25.191Z,11.67
2018-12-22T00:30:25.342Z,11.62
2018-12-22T00:31:25.491Z,11.65
2018-12-22T00:32:25.642Z,11.64
2018-12-22T00:33:25.793Z,11.71
2018-12-22T00:34:25.943Z,11.65
2018-12-22T00:35:26.094Z,11.70
2018-12-22T00:36:26.244Z,11.68
2018-12-22T00:37:26.392Z,11.70
2018-12-22T00:38:26.542Z,11.65
2018-12-22T00:39:26.694Z,11.59
2018-12-22T00:40:26.847Z,11.67
2018-12-22T00:41:26.994Z,11.61
2018-12-22T00:42:27.148Z,11.61
2018-12-22T00:43:27.292Z,11.53
2018-12-22T00:44:27.444Z,11.64
2018-12-22T00:45:27.594Z,11.68
2018-12-22T00:46:27.746Z,11.65
2018-12-22T00:47:27.899Z,11.68
2018-12-22T00:48:28.043Z,11.64
2018-12-22T00:49:28.191Z,11.71
2018-12-22T00:50:28.341Z,11.75
2018-12-22T00:51:28.494Z,11.68
2018-12-22T00:52:28.707Z,11.61
2018-12-22T00:53:28.791Z,11.64
2018-12-22T00:54:28.944Z,11.65
2018-12-22T00:55:29.093Z,11.68
2018-12-22T00:56:29.241Z,11.70
2018-12-22T00:57:29.395Z,11.65
2018-12-22T00:58:30.835Z,11.65
2018-12-22T00:59:29.692Z,11.65
2018-12-22T01:00:29.837Z,11.61
2018-12-22T01:01:29.988Z,11.62
2018-12-22T01:02:30.138Z,11.54
2018-12-22T01:03:30.288Z,11.64
2018-12-22T01:04:30.439Z,11.56
2018-12-22T01:05:30.588Z,11.50
2018-12-22T01:06:30.739Z,11.56
2018-12-22T01:07:30.887Z,11.62
2018-12-22T01:08:31.038Z,11.61
2018-12-22T01:09:31.186Z,11.64
2018-12-22T01:10:31.342Z,11.52
2018-12-22T01:11:31.519Z,11.49
2018-12-22T01:12:31.669Z,11.54
2018-12-22T01:13:31.815Z,11.67
2018-12-22T01:14:31.966Z,11.64
2018-12-22T01:15:32.114Z,11.65
2018-12-22T01:16:32.264Z,11.62
2018-12-22T01:17:32.413Z,11.64
2018-12-22T01:18:32.563Z,11.54
2018-12-22T01:19:32.714Z,11.61
2018-12-22T01:20:32.863Z,11.54
2018-12-22T01:21:33.013Z,11.61
2018-12-22T01:22:33.161Z,11.52
2018-12-22T01:23:33.312Z,11.56
2018-12-22T01:24:33.461Z,11.47
2018-12-22T01:25:33.608Z,11.49
2018-12-22T01:26:33.757Z,11.49
2018-12-22T01:27:33.908Z,11.44
2018-12-22T01:28:39.380Z,11.44
2018-12-22T01:29:34.207Z,11.53
2018-12-22T01:30:34.358Z,11.54
2018-12-22T01:31:34.508Z,11.57
2018-12-22T01:32:34.659Z,11.44
2018-12-22T01:33:34.810Z,11.64
2018-12-22T01:34:34.958Z,11.57
2018-12-22T01:35:35.109Z,11.53
2018-12-22T01:36:35.256Z,11.53
2018-12-22T01:37:35.405Z,11.52
2018-12-22T01:38:35.556Z,11.49
2018-12-22T01:39:35.709Z,11.52
2018-12-22T01:40:35.856Z,11.59
2018-12-22T01:41:36.009Z,11.50
2018-12-22T01:42:36.154Z,11.64
2018-12-22T01:43:36.305Z,11.57
2018-12-22T01:44:36.454Z,11.56
2018-12-22T01:45:36.605Z,11.61
2018-12-22T01:46:36.753Z,11.61
2018-12-22T01:47:36.904Z,11.52
2018-12-22T01:48:37.053Z,11.53
2018-12-22T01:49:37.201Z,11.50
2018-12-22T01:50:37.351Z,11.47
2018-12-22T01:51:37.500Z,11.56
2018-12-22T01:52:37.651Z,11.50
2018-12-22T01:53:37.801Z,11.53
2018-12-22T01:54:37.950Z,11.54
2018-12-22T01:55:38.100Z,11.50
2018-12-22T01:56:38.249Z,11.46
2018-12-22T01:57:38.399Z,11.46
2018-12-22T01:58:38.550Z,11.65
2018-12-22T01:59:38.700Z,11.46
2018-12-22T02:00:38.849Z,11.50
2018-12-22T02:01:38.998Z,11.54
2018-12-22T02:02:39.153Z,11.50
2018-12-22T02:03:39.298Z,11.50
2018-12-22T02:04:39.447Z,11.50
2018-12-22T02:05:39.596Z,11.50
2018-12-22T02:06:39.748Z,11.57
2018-12-22T02:07:39.896Z,11.50
2018-12-22T02:08:40.045Z,11.49
2018-12-22T02:09:40.195Z,11.49
2018-12-22T02:10:40.344Z,11.47
2018-12-22T02:11:40.490Z,11.46
2018-12-22T02:12:40.639Z,11.50
2018-12-22T02:13:40.788Z,11.50
2018-12-22T02:14:40.938Z,11.50
2018-12-22T02:15:41.086Z,11.46
2018-12-22T02:16:41.239Z,11.44
2018-12-22T02:17:41.388Z,11.52
2018-12-22T02:18:41.535Z,11.43
2018-12-22T02:19:41.691Z,11.46
2018-12-22T02:20:41.834Z,11.50
2018-12-22T02:21:41.985Z,11.46
2018-12-22T02:22:42.135Z,11.43
2018-12-22T02:23:42.284Z,11.46
2018-12-22T02:24:42.432Z,11.46
2018-12-22T02:25:42.581Z,11.36
2018-12-22T02:26:42.735Z,11.41
2018-12-22T02:27:42.881Z,11.49
2018-12-22T02:28:43.031Z,11.46
2018-12-22T02:29:43.178Z,11.46
2018-12-22T02:30:43.327Z,11.43
2018-12-22T02:31:43.478Z,11.36
2018-12-22T02:32:43.629Z,11.44
2018-12-22T02:33:43.773Z,11.44
2018-12-22T02:34:43.921Z,11.44
2018-12-22T02:35:44.069Z,11.44
2018-12-22T02:36:44.220Z,11.43
2018-12-22T02:37:44.369Z,11.38
2018-12-22T02:38:44.519Z,11.39
2018-12-22T02:39:44.667Z,11.38
2018-12-22T02:40:44.815Z,11.46
2018-12-22T02:41:44.965Z,11.43
2018-12-22T02:42:45.114Z,11.36
2018-12-22T02:43:45.264Z,11.36
2018-12-22T02:44:45.413Z,11.38
2018-12-22T02:45:45.565Z,11.36
2018-12-22T02:46:45.711Z,11.38
2018-12-22T02:47:45.860Z,11.35
2018-12-22T02:48:46.011Z,11.39
2018-12-22T02:49:46.160Z,11.38
2018-12-22T02:50:46.309Z,11.41
2018-12-22T02:51:46.456Z,11.34
2018-12-22T02:52:46.605Z,11.38
2018-12-22T02:53:46.756Z,11.31
2018-12-22T02:54:46.905Z,11.38
2018-12-22T02:55:47.054Z,11.32
2018-12-22T02:56:47.204Z,11.31
2018-12-22T02:57:47.349Z,11.24
2018-12-22T02:58:47.498Z,11.35
2018-12-22T02:59:47.646Z,11.21
2018-12-22T03:00:47.795Z,11.31
2018-12-22T03:01:47.943Z,11.28
2018-12-22T03:02:48.121Z,11.31
2018-12-22T03:03:48.239Z,11.34
2018-12-22T03:04:48.391Z,11.27
2018-12-22T03:05:48.539Z,11.25
2018-12-22T03:06:48.688Z,11.32
2018-12-22T03:07:48.840Z,11.34
2018-12-22T03:08:48.987Z,11.24
2018-12-22T03:09:49.272Z,11.21
2018-12-22T03:10:49.283Z,11.24
2018-12-22T03:11:49.432Z,11.25
2018-12-22T03:12:49.578Z,11.31
2018-12-22T03:13:49.727Z,11.20
2018-12-22T03:14:49.878Z,11.25
2018-12-22T03:15:50.028Z,11.28
2018-12-22T03:16:50.175Z,11.21
2018-12-22T03:17:50.324Z,11.19
2018-12-22T03:18:50.481Z,11.20
2018-12-22T03:19:50.626Z,11.21
2018-12-22T03:20:50.774Z,11.25
2018-12-22T03:21:50.924Z,11.25
2018-12-22T03:22:51.073Z,11.24
2018-12-22T03:23:51.219Z,11.27
2018-12-22T03:24:51.370Z,11.19
2018-12-22T03:25:51.516Z,11.16
2018-12-22T03:26:51.664Z,11.06
2018-12-22T03:27:51.812Z,11.20
2018-12-22T03:28:51.963Z,11.16
2018-12-22T03:29:52.115Z,11.17
2018-12-22T03:30:52.268Z,11.20
2018-12-22T03:31:52.557Z,11.11
2018-12-22T03:32:52.558Z,11.06
2018-12-22T03:33:52.705Z,11.17
2018-12-22T03:34:52.859Z,11.06
2018-12-22T03:35:53.006Z,11.13
2018-12-22T03:36:53.154Z,11.17
2018-12-22T03:37:53.304Z,11.24
2018-12-22T03:38:53.454Z,11.10
2018-12-22T03:39:53.602Z,11.11
2018-12-22T03:40:53.753Z,11.16
2018-12-22T03:41:53.898Z,11.16
2018-12-22T03:42:54.050Z,11.17
2018-12-22T03:43:54.198Z,11.19
2018-12-22T03:44:54.351Z,11.20
2018-12-22T03:45:54.498Z,11.27
2018-12-22T03:46:54.646Z,11.24
2018-12-22T03:47:54.797Z,11.14
2018-12-22T03:48:54.943Z,11.19
2018-12-22T03:49:55.091Z,11.21
2018-12-22T03:50:55.243Z,11.14
2018-12-22T03:51:55.393Z,11.17
2018-12-22T03:52:55.541Z,11.28
2018-12-22T03:53:55.688Z,11.17
2018-12-22T03:54:55.840Z,11.21
2018-12-22T03:55:55.988Z,11.20
2018-12-22T03:56:56.135Z,11.21
2018-12-22T03:57:56.286Z,11.20
2018-12-22T03:58:56.437Z,11.13
2018-12-22T03:59:56.584Z,11.13
2018-12-22T04:00:56.733Z,11.24
2018-12-22T04:01:56.881Z,11.11
2018-12-22T04:02:57.033Z,11.21
2018-12-22T04:03:57.182Z,11.20
2018-12-22T04:04:57.330Z,11.17
2018-12-22T04:05:57.481Z,11.19
2018-12-22T04:06:57.633Z,11.16
2018-12-22T04:07:57.777Z,11.24
2018-12-22T04:08:57.927Z,11.16
2018-12-22T04:09:58.074Z,11.25
2018-12-22T04:10:58.219Z,11.25
2018-12-22T04:11:58.426Z,11.21
2018-12-22T04:12:58.522Z,11.20
2018-12-22T04:13:58.670Z,11.25
2018-12-22T04:14:58.820Z,11.27
2018-12-22T04:15:58.970Z,11.11
2018-12-22T04:16:59.117Z,11.24
2018-12-22T04:17:59.265Z,11.25
2018-12-22T04:18:59.416Z,11.10
2018-12-22T04:19:59.576Z,11.24
2018-12-22T04:20:59.713Z,11.27
2018-12-22T04:21:59.863Z,11.19
2018-12-22T04:23:00.018Z,11.20
2018-12-22T04:24:00.164Z,11.16
2018-12-22T04:25:00.311Z,11.20
2018-12-22T04:26:00.460Z,11.19
2018-12-22T04:27:00.612Z,11.06
2018-12-22T04:28:00.761Z,11.19
2018-12-22T04:29:00.911Z,11.17
2018-12-22T04:30:01.056Z,11.17
2018-12-22T04:31:01.210Z,11.17
2018-12-22T04:32:01.359Z,11.21
2018-12-22T04:33:01.499Z,11.17
2018-12-22T04:34:01.657Z,11.19
2018-12-22T04:35:01.811Z,11.27
2018-12-22T04:36:01.956Z,11.16
2018-12-22T04:37:02.111Z,11.25
2018-12-22T04:38:02.265Z,11.19
2018-12-22T04:39:02.402Z,11.24
2018-12-22T04:40:02.554Z,11.21
2018-12-22T04:41:02.700Z,11.27
2018-12-22T04:42:02.850Z,11.19
2018-12-22T04:43:02.998Z,11.27
2018-12-22T04:44:03.146Z,11.28
2018-12-22T04:45:03.300Z,11.25
2018-12-22T04:46:03.448Z,11.20
2018-12-22T04:47:03.597Z,11.16
2018-12-22T04:48:03.745Z,11.19
2018-12-22T04:49:03.899Z,11.19
2018-12-22T04:50:04.044Z,11.27
2018-12-22T04:51:04.194Z,11.16
2018-12-22T04:52:04.347Z,11.28
2018-12-22T04:53:04.494Z,11.25
2018-12-22T04:54:04.640Z,11.14
2018-12-22T04:55:04.791Z,11.16
2018-12-22T04:56:04.946Z,11.21
2018-12-22T04:57:05.086Z,11.14
2018-12-22T04:58:05.236Z,11.16
2018-12-22T04:59:05.387Z,11.16
2018-12-22T05:00:05.534Z,11.13
2018-12-22T05:01:05.683Z,11.20
2018-12-22T05:02:05.832Z,11.07
2018-12-22T05:03:05.979Z,11.03
2018-12-22T05:04:06.134Z,11.10
2018-12-22T05:05:06.280Z,11.14
2018-12-22T05:06:06.431Z,11.13
2018-12-22T05:07:06.578Z,11.10
2018-12-22T05:08:06.725Z,11.06
2018-12-22T05:09:06.880Z,11.13
2018-12-22T05:10:07.023Z,11.07
2018-12-22T05:11:07.173Z,11.02
2018-12-22T05:12:07.324Z,11.02
2018-12-22T05:13:07.474Z,11.03
2018-12-22T05:14:07.622Z,11.02
2018-12-22T05:15:07.770Z,11.06
2018-12-22T05:16:07.918Z,11.09
2018-12-22T05:17:08.065Z,11.01
2018-12-22T05:18:08.215Z,11.02
2018-12-22T05:19:08.365Z,11.02
2018-12-22T05:20:08.513Z,11.07
2018-12-22T05:21:08.662Z,10.96
2018-12-22T05:22:08.814Z,11.02
2018-12-22T05:23:08.960Z,10.96
2018-12-22T05:24:09.111Z,11.06
2018-12-22T05:25:09.261Z,10.98
2018-12-22T05:26:09.410Z,11.06
2018-12-22T05:27:09.563Z,10.95
2018-12-22T05:28:09.708Z,10.86
2018-12-22T05:29:09.859Z,10.98
2018-12-22T05:30:10.007Z,10.98
2018-12-22T05:31:10.155Z,10.94
2018-12-22T05:32:10.308Z,10.84
2018-12-22T05:33:10.452Z,10.96
2018-12-22T05:34:10.601Z,10.86
2018-12-22T05:35:10.751Z,10.77
2018-12-22T05:36:10.901Z,10.77
2018-12-22T05:37:11.049Z,10.77
2018-12-22T05:38:11.202Z,10.71
2018-12-22T05:39:11.352Z,10.71
2018-12-22T05:40:11.498Z,10.65
2018-12-22T05:41:11.647Z,10.66
2018-12-22T05:42:11.801Z,10.65
2018-12-22T05:43:11.944Z,10.70
2018-12-22T05:44:12.095Z,10.58
2018-12-22T05:45:12.244Z,10.63
2018-12-22T05:46:12.392Z,10.73
2018-12-22T05:47:12.542Z,10.68
2018-12-22T05:48:12.691Z,10.63
2018-12-22T05:49:12.840Z,10.73
2018-12-22T05:50:12.990Z,10.65
2018-12-22T05:51:13.141Z,10.66
2018-12-22T05:52:13.291Z,10.55
2018-12-22T05:53:13.437Z,10.65
2018-12-22T05:54:13.586Z,10.66
2018-12-22T05:55:13.737Z,10.68
2018-12-22T05:56:13.884Z,10.55
2018-12-22T05:57:14.032Z,10.58
2018-12-22T05:58:14.181Z,10.58
2018-12-22T05:59:14.330Z,10.53
2018-12-22T06:00:14.479Z,10.39
2018-12-22T06:01:14.627Z,10.42
2018-12-22T06:02:14.777Z,10.32
2018-12-22T06:03:14.924Z,10.26
2018-12-22T06:04:15.073Z,10.25
2018-12-22T06:05:16.781Z,10.26
2018-12-22T06:06:15.370Z,10.25
2018-12-22T06:07:15.518Z,10.22
2018-12-22T06:08:15.672Z,10.18
2018-12-22T06:09:15.816Z,10.17
2018-12-22T06:10:15.965Z,10.21
2018-12-22T06:11:16.114Z,10.25
2018-12-22T06:12:16.263Z,10.22
2018-12-22T06:13:16.412Z,10.19
2018-12-22T06:14:16.560Z,10.25
2018-12-22T06:15:16.707Z,10.14
2018-12-22T06:16:16.857Z,10.14
2018-12-22T06:17:17.007Z,10.09
2018-12-22T06:18:17.154Z,10.10
2018-12-22T06:19:17.306Z,10.21
2018-12-22T06:20:17.453Z,10.17
2018-12-22T06:21:17.601Z,10.22
2018-12-22T06:22:17.754Z,10.10
2018-12-22T06:23:17.901Z,10.21
2018-12-22T06:24:18.052Z,10.19
2018-12-22T06:25:18.200Z,10.25
2018-12-22T06:26:18.349Z,10.25
2018-12-22T06:27:18.586Z,10.28
2018-12-22T06:28:18.647Z,10.32
2018-12-22T06:29:18.795Z,10.43
2018-12-22T06:30:18.946Z,10.43
2018-12-22T06:31:19.092Z,10.42
2018-12-22T06:32:19.242Z,10.51
2018-12-22T06:33:19.391Z,10.44
2018-12-22T06:34:19.541Z,10.43
2018-12-22T06:35:19.686Z,10.44
2018-12-22T06:36:19.838Z,10.51
2018-12-22T06:37:19.987Z,10.55
2018-12-22T06:38:20.136Z,10.55
2018-12-22T06:39:20.285Z,10.58
2018-12-22T06:40:20.437Z,10.56
2018-12-22T06:41:20.585Z,10.59
2018-12-22T06:42:20.732Z,10.63
2018-12-22T06:43:20.883Z,10.59
2018-12-22T06:44:21.030Z,10.63
2018-12-22T06:45:21.179Z,10.60
2018-12-22T06:46:21.329Z,10.66
2018-12-22T06:47:21.480Z,10.71
2018-12-22T06:48:21.628Z,10.76
2018-12-22T06:49:21.780Z,10.76
2018-12-22T06:50:21.928Z,10.80
2018-12-22T06:51:22.073Z,10.76
2018-12-22T06:52:22.224Z,10.65
2018-12-22T06:53:22.371Z,10.80
2018-12-22T06:54:22.522Z,10.74
2018-12-22T06:55:22.673Z,10.74
2018-12-22T06:56:22.821Z,10.74
2018-12-22T06:57:22.970Z,10.70
2018-12-22T06:58:23.119Z,10.73
2018-12-22T06:59:23.336Z,10.77
2018-12-22T07:00:23.415Z,10.65
2018-12-22T07:01:23.566Z,10.66
2018-12-22T07:02:23.717Z,10.63
2018-12-22T07:03:23.866Z,10.68
2018-12-22T07:04:24.014Z,10.60
2018-12-22T07:05:24.161Z,10.70
2018-12-22T07:06:24.310Z,10.71
2018-12-22T07:07:24.459Z,10.68
2018-12-22T07:08:24.608Z,10.60
2018-12-22T07:09:24.763Z,10.68
2018-12-22T07:10:25.581Z,10.73
2018-12-22T07:11:25.061Z,10.59
2018-12-22T07:12:25.207Z,10.74
2018-12-22T07:13:25.362Z,10.70
2018-12-22T07:14:25.507Z,10.66
2018-12-22T07:15:25.655Z,10.73
2018-12-22T07:16:25.805Z,10.74
2018-12-22T07:17:25.958Z,10.78
2018-12-22T07:18:26.102Z,10.73
2018-12-22T07:19:26.251Z,10.74
2018-12-22T07:20:26.402Z,10.74
2018-12-22T07:21:26.551Z,10.66
2018-12-22T07:22:26.701Z,10.60
2018-12-22T07:23:26.850Z,10.74
2018-12-22T07:24:26.999Z,10.76
2018-12-22T07:25:27.149Z,10.71
2018-12-22T07:26:27.297Z,10.63
2018-12-22T07:27:27.448Z,10.73
2018-12-22T07:28:27.597Z,10.65
2018-12-22T07:29:27.745Z,10.70
2018-12-22T07:30:27.895Z,10.70
2018-12-22T07:31:28.043Z,10.66
2018-12-22T07:32:28.195Z,10.77
2018-12-22T07:33:28.344Z,10.70
2018-12-22T07:34:28.492Z,10.73
2018-12-22T07:35:28.643Z,10.80
2018-12-22T07:36:28.793Z,10.71
2018-12-22T07:37:28.942Z,10.71
2018-12-22T07:38:29.089Z,10.71
2018-12-22T07:39:29.247Z,10.76
2018-12-22T07:40:29.387Z,10.76
2018-12-22T07:41:29.536Z,10.73
2018-12-22T07:42:29.684Z,10.83
2018-12-22T07:43:29.831Z,10.68
2018-12-22T07:44:29.982Z,10.73
2018-12-22T07:45:30.130Z,10.77
2018-12-22T07:46:30.398Z,10.84
2018-12-22T07:47:30.473Z,10.83
2018-12-22T07:48:30.613Z,10.88
2018-12-22T07:49:30.761Z,10.83
2018-12-22T07:50:30.912Z,10.78
2018-12-22T07:51:31.061Z,10.86
2018-12-22T07:52:31.210Z,10.73
2018-12-22T07:53:31.361Z,10.80
2018-12-22T07:54:31.504Z,10.77
2018-12-22T07:55:31.649Z,10.77
2018-12-22T07:56:31.798Z,10.74
2018-12-22T07:57:31.947Z,10.77
2018-12-22T07:58:32.098Z,10.77
2018-12-22T07:59:32.261Z,10.62
2018-12-22T08:00:35.100Z,10.74
2018-12-22T08:01:32.556Z,10.73
2018-12-22T08:02:32.707Z,10.70
2018-12-22T08:03:32.858Z,10.65
2018-12-22T08:04:33.006Z,10.66
2018-12-22T08:05:38.613Z,10.73
2018-12-22T08:06:33.303Z,10.59
2018-12-22T08:07:33.454Z,10.59
2018-12-22T08:08:33.604Z,10.66
2018-12-22T08:09:33.757Z,10.65
2018-12-22T08:10:33.905Z,10.65
2018-12-22T08:11:34.058Z,10.55
2018-12-22T08:12:34.201Z,10.63
2018-12-22T08:13:34.361Z,10.56
2018-12-22T08:14:34.619Z,10.63
2018-12-22T08:15:34.731Z,10.53
2018-12-22T08:16:34.779Z,10.58
2018-12-22T08:17:34.925Z,10.53
2018-12-22T08:18:35.076Z,10.53
2018-12-22T08:19:35.226Z,10.46
2018-12-22T08:20:35.375Z,10.36
2018-12-22T08:21:35.532Z,10.42
2018-12-22T08:22:35.680Z,10.40
2018-12-22T08:23:35.824Z,10.40
2018-12-22T08:24:35.973Z,10.30
2018-12-22T08:25:36.123Z,10.37
2018-12-22T08:26:36.272Z,10.25
2018-12-22T08:27:36.420Z,10.36
2018-12-22T08:28:36.573Z,10.28
2018-12-22T08:29:36.720Z,10.25
2018-12-22T08:30:43.454Z,10.22
2018-12-22T08:31:37.018Z,10.24
2018-12-22T08:32:37.168Z,10.25
2018-12-22T08:33:37.317Z,10.22
2018-12-22T08:34:37.467Z,10.07
2018-12-22T08:35:37.616Z,10.12
2018-12-22T08:36:37.766Z,10.15
2018-12-22T08:37:37.915Z,10.09
2018-12-22T08:38:38.063Z,10.07
2018-12-22T08:39:38.213Z,10.10
2018-12-22T08:40:38.364Z,9.97
2018-12-22T08:41:38.510Z,10.00
2018-12-22T08:42:38.658Z,10.06
2018-12-22T08:43:38.808Z,9.99
2018-12-22T08:44:38.957Z,10.10
2018-12-22T08:45:39.105Z,10.03
2018-12-22T08:46:39.254Z,10.04
2018-12-22T08:47:39.403Z,10.04
2018-12-22T08:48:39.552Z,10.07
2018-12-22T08:49:39.704Z,10.01
2018-12-22T08:50:39.850Z,10.07
2018-12-22T08:51:40.003Z,10.07
2018-12-22T08:52:40.150Z,10.06
2018-12-22T08:53:40.298Z,10.10
2018-12-22T08:54:40.447Z,10.04
2018-12-22T08:55:40.598Z,10.09
2018-12-22T08:56:40.746Z,10.04
2018-12-22T08:57:40.895Z,10.07
2018-12-22T08:58:41.042Z,10.00
2018-12-22T08:59:41.191Z,9.99
2018-12-22T09:00:41.340Z,10.06
2018-12-22T09:01:41.491Z,10.03
2018-12-22T09:02:41.644Z,9.97
2018-12-22T09:03:41.791Z,10.06
2018-12-22T09:04:41.939Z,9.89
2018-12-22T09:05:42.091Z,9.97
2018-12-22T09:06:42.240Z,9.94
2018-12-22T09:07:42.514Z,9.86
2018-12-22T09:08:42.536Z,9.85
2018-12-22T09:09:42.695Z,9.89
2018-12-22T09:10:42.835Z,9.85
2018-12-22T09:11:42.983Z,9.91
2018-12-22T09:12:43.135Z,9.89
2018-12-22T09:13:43.282Z,9.83
2018-12-22T09:14:43.430Z,9.93
2018-12-22T09:15:43.580Z,9.91
2018-12-22T09:16:43.726Z,9.94
2018-12-22T09:17:43.876Z,9.91
2018-12-22T09:18:44.025Z,9.91
2018-12-22T09:19:44.174Z,9.94
2018-12-22T09:20:44.323Z,10.01
2018-12-22T09:21:44.472Z,10.03
2018-12-22T09:22:44.621Z,9.99
2018-12-22T09:23:44.770Z,10.03
2018-12-22T09:24:44.917Z,9.97
2018-12-22T09:25:45.066Z,10.01
2018-12-22T09:26:45.216Z,9.99
2018-12-22T09:27:45.363Z,10.04
2018-12-22T09:28:45.512Z,9.99
2018-12-22T09:29:45.662Z,10.03
2018-12-22T09:30:45.812Z,10.07
2018-12-22T09:31:45.964Z,10.03
2018-12-22T09:32:46.111Z,10.04
2018-12-22T09:33:46.260Z,10.09
2018-12-22T09:34:46.411Z,10.06
2018-12-22T09:35:46.558Z,10.01
2018-12-22T09:36:46.706Z,10.12
2018-12-22T09:37:46.856Z,10.10
2018-12-22T09:38:47.007Z,10.21
2018-12-22T09:39:47.159Z,10.24
2018-12-22T09:40:47.306Z,10.09
2018-12-22T09:41:47.465Z,10.19
2018-12-22T09:42:47.603Z,10.21
2018-12-22T09:43:47.752Z,10.25
2018-12-22T09:44:47.902Z,10.24
2018-12-22T09:45:48.052Z,10.24
2018-12-22T09:46:48.202Z,10.18
2018-12-22T09:47:48.354Z,10.12
2018-12-22T09:48:48.506Z,10.21
2018-12-22T09:49:48.662Z,10.24
2018-12-22T09:50:48.802Z,10.28
2018-12-22T09:51:48.961Z,10.26
2018-12-22T09:52:49.118Z,10.26
2018-12-22T09:53:49.262Z,10.32
2018-12-22T09:54:49.410Z,10.33
2018-12-22T09:55:49.557Z,10.28
2018-12-22T09:56:49.711Z,10.30
2018-12-22T09:57:49.858Z,10.25
2018-12-22T09:58:50.009Z,10.28
2018-12-22T09:59:50.157Z,10.22
2018-12-22T10:00:50.307Z,10.26
2018-12-22T10:01:50.457Z,10.37
2018-12-22T10:02:50.609Z,10.40
2018-12-22T10:03:50.761Z,10.30
2018-12-22T10:04:50.911Z,10.37
2018-12-22T10:05:51.061Z,10.43
2018-12-22T10:06:51.210Z,10.39
2018-12-22T10:07:51.361Z,10.42
2018-12-22T10:08:51.520Z,10.39
2018-12-22T10:09:51.666Z,10.46
2018-12-22T10:10:51.811Z,10.56
2018-12-22T10:11:51.961Z,10.53
2018-12-22T10:12:52.112Z,10.59
2018-12-22T10:13:52.261Z,10.52
2018-12-22T10:14:52.411Z,10.56
2018-12-22T10:15:52.559Z,10.73
2018-12-22T10:16:52.712Z,10.71
2018-12-22T10:17:52.862Z,10.63
2018-12-22T10:18:53.012Z,10.52
2018-12-22T10:19:53.160Z,10.52
2018-12-22T10:20:53.312Z,10.55
2018-12-22T10:21:53.459Z,10.56
2018-12-22T10:22:53.611Z,10.55
2018-12-22T10:23:53.763Z,10.51
2018-12-22T10:24:53.909Z,10.51
2018-12-22T10:25:54.057Z,10.60
2018-12-22T10:26:54.211Z,10.52
2018-12-22T10:27:54.361Z,10.51
2018-12-22T10:28:54.513Z,10.60
2018-12-22T10:29:54.664Z,10.58
2018-12-22T10:30:54.813Z,10.63
2018-12-22T10:31:54.963Z,10.60
2018-12-22T10:32:55.113Z,10.59
2018-12-22T10:33:55.263Z,10.60
2018-12-22T10:34:55.415Z,10.60
2018-12-22T10:35:55.562Z,10.65
2018-12-22T10:36:55.714Z,10.74
2018-12-22T10:37:55.865Z,10.60
2018-12-22T10:38:56.014Z,10.70
2018-12-22T10:39:56.163Z,10.58
2018-12-22T10:40:56.313Z,10.51
2018-12-22T10:41:56.462Z,10.47
2018-12-22T10:42:56.609Z,10.42
2018-12-22T10:43:56.761Z,10.58
2018-12-22T10:44:56.910Z,10.60
2018-12-22T10:45:57.059Z,10.55
2018-12-22T10:46:57.210Z,10.44
2018-12-22T10:47:57.357Z,10.40
2018-12-22T10:48:57.505Z,10.43
2018-12-22T10:49:57.664Z,10.51
2018-12-22T10:50:57.811Z,10.51
2018-12-22T10:51:57.961Z,10.51
2018-12-22T10:52:58.109Z,10.51
2018-12-22T10:53:58.258Z,10.46
2018-12-22T10:54:58.412Z,10.51
2018-12-22T10:55:58.564Z,10.47
2018-12-22T10:56:58.709Z,10.52
2018-12-22T10:57:59.966Z,10.47
2018-12-22T10:58:59.014Z,10.60
2018-12-22T10:59:59.161Z,10.59
2018-12-22T11:00:59.319Z,10.56
2018-12-22T11:01:59.462Z,10.59
2018-12-22T11:02:59.610Z,10.66
2018-12-22T11:03:59.767Z,10.68
2018-12-22T11:04:59.913Z,10.68
2018-12-22T11:06:00.060Z,10.66
2018-12-22T11:07:00.211Z,10.65
2018-12-22T11:08:00.361Z,10.74
2018-12-22T11:09:00.508Z,10.58
2018-12-22T11:10:00.659Z,10.62
2018-12-22T11:11:00.807Z,10.60
2018-12-22T11:12:00.959Z,10.59
2018-12-22T11:13:01.111Z,10.76
2018-12-22T11:14:01.257Z,10.60
2018-12-22T11:15:01.410Z,10.78
2018-12-22T11:16:01.560Z,10.66
2018-12-22T11:17:01.706Z,10.80
2018-12-22T11:18:01.863Z,10.73
2018-12-22T11:19:01.986Z,10.76
2018-12-22T11:20:02.135Z,10.76
2018-12-22T11:21:02.287Z,10.77
2018-12-22T11:22:02.434Z,10.63
2018-12-22T11:23:02.583Z,10.73
2018-12-22T11:24:03.029Z,10.70
2018-12-22T11:25:02.884Z,10.73
2018-12-22T11:26:03.157Z,10.71
2018-12-22T11:27:03.217Z,10.60
2018-12-22T11:28:03.365Z,10.70
2018-12-22T11:29:03.520Z,10.73
2018-12-22T11:30:03.668Z,10.62
2018-12-22T11:31:03.816Z,10.70
2018-12-22T11:32:03.967Z,10.73
2018-12-22T11:33:04.120Z,10.65
2018-12-22T11:34:04.290Z,10.73
2018-12-22T11:35:05.478Z,10.65
2018-12-22T11:36:04.759Z,10.66
2018-12-22T11:37:04.767Z,10.73
2018-12-22T11:38:04.921Z,10.62
2018-12-22T11:39:05.086Z,10.66
2018-12-22T11:40:05.216Z,10.63
2018-12-22T11:41:05.366Z,10.66
2018-12-22T11:42:05.515Z,10.65
2018-12-22T11:43:05.667Z,10.76
2018-12-22T11:44:05.815Z,10.68
2018-12-22T11:45:05.964Z,10.78
2018-12-22T11:46:06.112Z,10.70
2018-12-22T11:47:06.262Z,10.68
2018-12-22T11:48:06.412Z,10.71
2018-12-22T11:49:06.566Z,10.68
2018-12-22T11:50:06.716Z,10.77
2018-12-22T11:51:06.871Z,10.81
2018-12-22T11:52:07.018Z,10.78
2018-12-22T11:53:07.170Z,10.76
2018-12-22T11:54:07.318Z,10.77
2018-12-22T11:55:07.464Z,10.88
2018-12-22T11:56:07.617Z,10.89
2018-12-22T11:57:07.766Z,10.88
2018-12-22T11:58:07.915Z,10.88
2018-12-22T11:59:08.065Z,10.95
2018-12-22T12:00:08.214Z,10.96
2018-12-22T12:01:08.364Z,11.02
2018-12-22T12:02:09.855Z,10.99
2018-12-22T12:03:08.664Z,10.94
2018-12-22T12:04:08.812Z,10.99
2018-12-22T12:05:08.963Z,11.03
2018-12-22T12:06:09.109Z,10.99
2018-12-22T12:07:09.262Z,11.06
2018-12-22T12:08:09.408Z,10.99
2018-12-22T12:09:09.615Z,10.95
2018-12-22T12:10:09.699Z,11.01
2018-12-22T12:11:09.853Z,10.98
2018-12-22T12:12:10.004Z,10.98
2018-12-22T12:13:10.154Z,11.02
2018-12-22T12:14:10.301Z,11.01
2018-12-22T12:15:10.450Z,11.06
2018-12-22T12:16:10.602Z,10.99
2018-12-22T12:17:10.751Z,11.03
2018-12-22T12:18:10.908Z,10.99
2018-12-22T12:19:11.055Z,11.03
2018-12-22T12:20:11.203Z,10.99
2018-12-22T12:21:11.358Z,11.20
2018-12-22T12:22:11.505Z,11.19
2018-12-22T12:23:11.654Z,11.17
2018-12-22T12:24:11.806Z,11.25
2018-12-22T12:25:11.957Z,11.21
2018-12-22T12:26:12.105Z,11.16
2018-12-22T12:27:12.261Z,11.27
2018-12-22T12:28:12.410Z,11.27
2018-12-22T12:29:12.561Z,11.13
2018-12-22T12:30:12.739Z,11.16
2018-12-22T12:31:12.897Z,11.13
2018-12-22T12:32:13.044Z,11.19
2018-12-22T12:33:13.195Z,11.16
2018-12-22T12:34:13.344Z,11.17
2018-12-22T12:35:13.494Z,11.07
2018-12-22T12:36:13.645Z,11.20
2018-12-22T12:37:13.796Z,11.20
2018-12-22T12:38:13.947Z,11.24
2018-12-22T12:39:14.096Z,11.25
2018-12-22T12:40:14.250Z,11.24
2018-12-22T12:41:14.397Z,11.21
2018-12-22T12:42:14.549Z,11.31
2018-12-22T12:43:14.698Z,11.21
2018-12-22T12:44:14.862Z,11.21
2018-12-22T12:45:15.010Z,11.25
2018-12-22T12:46:15.160Z,11.25
2018-12-22T12:47:15.309Z,11.28
2018-12-22T12:48:15.457Z,11.21
2018-12-22T12:49:15.611Z,11.13
2018-12-22T12:50:15.759Z,11.25
2018-12-22T12:51:15.925Z,11.24
2018-12-22T12:52:16.058Z,11.32
2018-12-22T12:53:16.216Z,11.38
2018-12-22T12:54:16.367Z,11.49
2018-12-22T12:55:16.519Z,11.38